Terminal Aerodrome Forecast
Issued by NWS Greer, SC

Home | Current Version | Previous Version | Text Only | Print | Product List | Glossary On
Versions: 1 2 3 4 5 6 7 8 9 10 11 12 13 14
000
FTUS42 KGSP 232335
TAFGSP
TAF
KGSP 232335Z 2400/2424 VRB04KT P6SM FEW060 BKN250
     FM240300 VRB03KT P6SM SCT250
     FM241600 21006KT P6SM FEW060 SCT250=

USA.gov is the U.S. government's official web portal to all federal, state and local government web resources and services.